Time;durP1;ratioP1;P1;durP2;ratioP2;P2;SDS_P1;SDS_P2;PMS_P1;PMS_P2;Temp;Humidity;BMP_temperature;BMP_pressure;BME280_temperature;BME280_humidity;BME280_pressure;Samples;Min_cycle;Max_cycle;Signal;HPM_P1;HPM_P2
2022/08/26 00:02:00;;;;;;;0.00;0.00;;;;;;;;;;5032664;28;20076;-81
2022/08/26 00:04:26;;;;;;;0.00;0.00;;;;;;;;;;5032732;28;20068;-82
2022/08/26 00:06:53;;;;;;;0.00;0.00;;;;;;;;;;5016185;28;20044;-82
2022/08/26 00:09:20;;;;;;;0.00;0.00;;;;;;;;;;5032413;28;20099;-83
2022/08/26 00:11:46;;;;;;;0.00;0.00;;;;;;;;;;5032857;28;20472;-83
2022/08/26 00:14:12;;;;;;;0.00;0.00;;;;;;;;;;5032376;28;20044;-83
2022/08/26 00:16:38;;;;;;;0.00;0.00;;;;;;;;;;5032663;28;20053;-83
2022/08/26 00:19:04;;;;;;;0.00;0.00;;;;;;;;;;5033461;28;20478;-83
2022/08/26 00:21:30;;;;;;;0.00;0.00;;;;;;;;;;5033861;28;20052;-83
2022/08/26 00:23:56;;;;;;;0.00;0.00;;;;;;;;;;5032176;28;20048;-83
2022/08/26 00:26:22;;;;;;;0.00;0.00;;;;;;;;;;5032590;28;20045;-83
2022/08/26 00:28:48;;;;;;;0.00;0.00;;;;;;;;;;5032123;28;20484;-82
2022/08/26 00:31:15;;;;;;;2.45;0.10;;;;;;;;;;5031222;28;20415;-83
2022/08/26 00:33:41;;;;;;;0.00;0.00;;;;;;;;;;5031756;28;20054;-83
2022/08/26 00:36:08;;;;;;;0.00;0.00;;;;;;;;;;5032295;28;20412;-83
2022/08/26 00:38:34;;;;;;;0.00;0.00;;;;;;;;;;5033130;28;20449;-82
2022/08/26 00:41:00;;;;;;;0.00;0.00;;;;;;;;;;5031805;28;20049;-84
2022/08/26 00:43:29;;;;;;;0.38;0.10;;;;;;;;;;5031912;28;20048;-83
2022/08/26 00:45:58;;;;;;;0.10;0.10;;;;;;;;;;5032980;28;20493;-84
2022/08/26 00:48:27;;;;;;;0.00;0.00;;;;;;;;;;5031730;28;20125;-84
2022/08/26 00:50:55;;;;;;;0.00;0.00;;;;;;;;;;5031659;28;20081;-85
2022/08/26 00:53:23;;;;;;;0.00;0.00;;;;;;;;;;5032045;28;20069;-85
2022/08/26 00:55:52;;;;;;;0.05;0.05;;;;;;;;;;5031812;28;20056;-84
2022/08/26 00:58:18;;;;;;;0.00;0.00;;;;;;;;;;5033030;28;20069;-83
2022/08/26 01:00:44;;;;;;;0.00;0.00;;;;;;;;;;5031370;28;20484;-83
2022/08/26 01:03:10;;;;;;;0.00;0.00;;;;;;;;;;5033007;28;20176;-83
2022/08/26 01:05:38;;;;;;;0.00;0.00;;;;;;;;;;5031544;28;20038;-83
2022/08/26 01:08:04;;;;;;;0.00;0.00;;;;;;;;;;5031502;28;20058;-85
2022/08/26 01:10:30;;;;;;;0.00;0.00;;;;;;;;;;5031380;28;20090;-85
2022/08/26 01:13:01;;;;;;;0.00;0.00;;;;;;;;;;5031473;28;20041;-85
2022/08/26 01:15:30;;;;;;;0.00;0.00;;;;;;;;;;5031290;28;20052;-85
2022/08/26 01:17:57;;;;;;;0.00;0.00;;;;;;;;;;5032831;28;20045;-85
2022/08/26 01:20:42;;;;;;;0.00;0.00;;;;;;;;;;5031321;28;20049;-85
2022/08/26 01:23:10;;;;;;;0.00;0.00;;;;;;;;;;5032868;28;20037;-85
2022/08/26 01:25:40;;;;;;;0.00;0.00;;;;;;;;;;5014761;28;20121;-85
2022/08/26 01:28:07;;;;;;;0.00;0.00;;;;;;;;;;5031449;28;20060;-85
2022/08/26 01:30:34;;;;;;;0.00;0.00;;;;;;;;;;5032418;28;20068;-85
2022/08/26 01:33:02;;;;;;;0.00;0.00;;;;;;;;;;5031324;28;20477;-85
2022/08/26 01:35:29;;;;;;;0.00;0.00;;;;;;;;;;5032678;28;20052;-84
2022/08/26 01:37:56;;;;;;;0.00;0.00;;;;;;;;;;5031347;28;20050;-85
2022/08/26 01:40:24;;;;;;;0.00;0.00;;;;;;;;;;5032479;28;20132;-85
2022/08/26 01:42:50;;;;;;;0.00;0.00;;;;;;;;;;5034237;28;20049;-84
2022/08/26 01:45:19;;;;;;;0.00;0.00;;;;;;;;;;5035354;28;20133;-84
2022/08/26 01:47:47;;;;;;;0.25;0.05;;;;;;;;;;5035151;28;20065;-84
2022/08/26 01:50:15;;;;;;;0.00;0.00;;;;;;;;;;5036527;28;20041;-84
2022/08/26 01:52:43;;;;;;;0.32;0.05;;;;;;;;;;5036288;28;20511;-85
2022/08/26 01:55:09;;;;;;;0.00;0.00;;;;;;;;;;5018435;28;20041;-84
2022/08/26 01:57:35;;;;;;;0.00;0.00;;;;;;;;;;5035137;28;20500;-85
2022/08/26 02:00:04;;;;;;;0.00;0.00;;;;;;;;;;5036136;28;20045;-85
2022/08/26 02:02:30;;;;;;;0.00;0.00;;;;;;;;;;5035196;28;20388;-86
2022/08/26 02:04:59;;;;;;;0.00;0.00;;;;;;;;;;5034828;28;20167;-83
2022/08/26 02:07:25;;;;;;;0.00;0.00;;;;;;;;;;5034890;28;20120;-83
2022/08/26 02:09:51;;;;;;;0.17;0.10;;;;;;;;;;5018204;28;20045;-83
2022/08/26 02:12:18;;;;;;;0.00;0.00;;;;;;;;;;5018305;28;20041;-84
2022/08/26 02:14:49;;;;;;;0.00;0.00;;;;;;;;;;5034809;28;20523;-83
2022/08/26 02:17:16;;;;;;;0.00;0.00;;;;;;;;;;5034908;28;20049;-83
2022/08/26 02:19:44;;;;;;;0.00;0.00;;;;;;;;;;5036031;28;20045;-86
2022/08/26 02:22:14;;;;;;;0.00;0.00;;;;;;;;;;5036069;28;20095;-84
2022/08/26 02:24:46;;;;;;;0.00;0.00;;;;;;;;;;5034952;28;20524;-84
2022/08/26 02:27:12;;;;;;;0.00;0.00;;;;;;;;;;5035798;28;20477;-84
2022/08/26 02:29:41;;;;;;;0.00;0.00;;;;;;;;;;5017860;28;20057;-84
2022/08/26 02:32:08;;;;;;;0.00;0.00;;;;;;;;;;5034459;28;20041;-83
2022/08/26 02:34:34;;;;;;;0.00;0.00;;;;;;;;;;5034340;28;20049;-84
2022/08/26 02:37:01;;;;;;;0.00;0.00;;;;;;;;;;5035494;28;20076;-84
2022/08/26 02:39:28;;;;;;;0.20;0.10;;;;;;;;;;5035815;28;20033;-84
2022/08/26 02:41:54;;;;;;;0.00;0.00;;;;;;;;;;5035585;28;20073;-84
2022/08/26 02:44:21;;;;;;;0.10;0.10;;;;;;;;;;5035697;28;20041;-84
2022/08/26 02:46:47;;;;;;;0.00;0.00;;;;;;;;;;5035334;28;20046;-84
2022/08/26 02:49:13;;;;;;;0.00;0.00;;;;;;;;;;5035475;28;20519;-84
2022/08/26 02:51:39;;;;;;;0.00;0.00;;;;;;;;;;5033816;28;20041;-84
2022/08/26 02:54:05;;;;;;;0.00;0.00;;;;;;;;;;5034610;28;20049;-84
2022/08/26 02:56:35;;;;;;;0.00;0.00;;;;;;;;;;5034169;28;20396;-84
2022/08/26 02:59:01;;;;;;;0.00;0.00;;;;;;;;;;5034003;28;20041;-87
2022/08/26 03:01:28;;;;;;;0.00;0.00;;;;;;;;;;5034943;28;20141;-87
2022/08/26 03:03:55;;;;;;;0.20;0.20;;;;;;;;;;5035292;28;20099;-84
2022/08/26 03:06:21;;;;;;;0.00;0.00;;;;;;;;;;5033775;28;20045;-84
2022/08/26 03:08:47;;;;;;;0.00;0.00;;;;;;;;;;5034010;28;20045;-84
2022/08/26 03:11:14;;;;;;;0.00;0.00;;;;;;;;;;5033709;28;20116;-83
2022/08/26 03:13:40;;;;;;;0.00;0.00;;;;;;;;;;5033911;28;20091;-84
2022/08/26 03:16:06;;;;;;;0.00;0.00;;;;;;;;;;5033439;28;20119;-84
2022/08/26 03:18:33;;;;;;;0.00;0.00;;;;;;;;;;5033627;28;20046;-84
2022/08/26 03:21:04;;;;;;;0.00;0.00;;;;;;;;;;5033932;28;20477;-83
2022/08/26 03:23:30;;;;;;;0.00;0.00;;;;;;;;;;5033913;28;20053;-83
2022/08/26 03:25:56;;;;;;;0.00;0.00;;;;;;;;;;5034808;28;20064;-81
2022/08/26 03:28:22;;;;;;;0.00;0.00;;;;;;;;;;5033772;28;20041;-84
2022/08/26 03:30:48;;;;;;;0.00;0.00;;;;;;;;;;5033100;28;20136;-84
2022/08/26 03:33:14;;;;;;;0.00;0.00;;;;;;;;;;5033263;28;20531;-86
2022/08/26 03:35:42;;;;;;;0.00;0.00;;;;;;;;;;5034416;28;20048;-83
2022/08/26 03:38:08;;;;;;;0.00;0.00;;;;;;;;;;5033367;28;20382;-83
2022/08/26 03:40:35;;;;;;;0.00;0.00;;;;;;;;;;5016644;28;20060;-83
2022/08/26 03:43:01;;;;;;;0.00;0.00;;;;;;;;;;5034665;28;20037;-82
2022/08/26 03:45:27;;;;;;;0.00;0.00;;;;;;;;;;5034904;28;20134;-82
2022/08/26 03:47:54;;;;;;;0.00;0.00;;;;;;;;;;5032849;28;20049;-82
2022/08/26 03:50:21;;;;;;;0.00;0.00;;;;;;;;;;5034491;28;20037;-82
2022/08/26 03:52:47;;;;;;;0.00;0.00;;;;;;;;;;5032743;28;20045;-85
2022/08/26 03:55:14;;;;;;;0.00;0.00;;;;;;;;;;5034416;28;20405;-82
2022/08/26 03:57:40;;;;;;;0.00;0.00;;;;;;;;;;5033806;28;20566;-82
2022/08/26 04:00:08;;;;;;;0.00;0.00;;;;;;;;;;5032850;28;20056;-82
2022/08/26 04:02:34;;;;;;;0.00;0.00;;;;;;;;;;5033694;28;20041;-82
2022/08/26 04:05:01;;;;;;;0.05;0.05;;;;;;;;;;5033971;28;20041;-83
2022/08/26 04:07:27;;;;;;;0.00;0.00;;;;;;;;;;5031980;28;20412;-86
2022/08/26 04:09:56;;;;;;;0.00;0.00;;;;;;;;;;5032853;28;20042;-84
2022/08/26 04:12:24;;;;;;;0.00;0.00;;;;;;;;;;5033824;28;20183;-83
2022/08/26 04:14:50;;;;;;;0.00;0.00;;;;;;;;;;5034066;28;20045;-84
2022/08/26 04:17:16;;;;;;;0.00;0.00;;;;;;;;;;5032292;28;20056;-83
2022/08/26 04:19:42;;;;;;;0.00;0.00;;;;;;;;;;5032513;28;20049;-84
2022/08/26 04:22:08;;;;;;;0.00;0.00;;;;;;;;;;5032480;28;20055;-83
2022/08/26 04:24:35;;;;;;;0.00;0.00;;;;;;;;;;5033661;28;20095;-81
2022/08/26 04:27:02;;;;;;;0.00;0.00;;;;;;;;;;5033128;28;20527;-81
2022/08/26 04:29:28;;;;;;;0.00;0.00;;;;;;;;;;5033871;28;20576;-82
2022/08/26 04:31:55;;;;;;;0.00;0.00;;;;;;;;;;5031981;28;20477;-83
2022/08/26 04:34:22;;;;;;;0.00;0.00;;;;;;;;;;5033534;28;20049;-82
2022/08/26 04:36:48;;;;;;;0.00;0.00;;;;;;;;;;5015473;28;20051;-83
2022/08/26 04:39:15;;;;;;;0.00;0.00;;;;;;;;;;5033394;28;20037;-82
2022/08/26 04:41:42;;;;;;;0.00;0.00;;;;;;;;;;5031835;28;20040;-82
2022/08/26 04:44:08;;;;;;;0.00;0.00;;;;;;;;;;5033650;28;20041;-82
2022/08/26 04:46:35;;;;;;;0.00;0.00;;;;;;;;;;5031770;28;20043;-82
2022/08/26 04:49:01;;;;;;;0.00;0.00;;;;;;;;;;5032227;28;20081;-83
2022/08/26 04:51:27;;;;;;;0.00;0.00;;;;;;;;;;5033143;28;20120;-83
2022/08/26 04:53:57;;;;;;;0.00;0.00;;;;;;;;;;5032135;28;20129;-82
2022/08/26 04:56:28;;;;;;;0.00;0.00;;;;;;;;;;5031717;28;20049;-82
2022/08/26 04:58:54;;;;;;;0.00;0.00;;;;;;;;;;5033142;28;20052;-82
2022/08/26 05:01:20;;;;;;;0.00;0.00;;;;;;;;;;5033014;28;20037;-83
2022/08/26 05:03:47;;;;;;;0.00;0.00;;;;;;;;;;5033058;28;20047;-83
2022/08/26 05:06:14;;;;;;;0.00;0.00;;;;;;;;;;5032026;28;20561;-82
2022/08/26 05:08:40;;;;;;;0.00;0.00;;;;;;;;;;5031391;28;20073;-86
2022/08/26 05:11:07;;;;;;;0.00;0.00;;;;;;;;;;5031852;28;20124;-84
2022/08/26 05:13:33;;;;;;;0.00;0.00;;;;;;;;;;5032909;28;20061;-84
2022/08/26 05:16:06;;;;;;;0.00;0.00;;;;;;;;;;5033059;28;20362;-83
2022/08/26 05:18:33;;;;;;;0.00;0.00;;;;;;;;;;5031195;28;20077;-83
2022/08/26 05:21:00;;;;;;;0.00;0.00;;;;;;;;;;5031519;28;20485;-83
2022/08/26 05:23:26;;;;;;;0.00;0.00;;;;;;;;;;5031199;28;20041;-84
2022/08/26 05:25:54;;;;;;;0.00;0.00;;;;;;;;;;5032973;28;20048;-84
2022/08/26 05:28:20;;;;;;;0.00;0.00;;;;;;;;;;5032605;28;20129;-83
2022/08/26 05:30:47;;;;;;;0.00;0.00;;;;;;;;;;5031211;28;20053;-83
2022/08/26 05:33:13;;;;;;;0.00;0.00;;;;;;;;;;5031162;28;20045;-83
2022/08/26 05:35:40;;;;;;;0.00;0.00;;;;;;;;;;5031297;28;20045;-82
2022/08/26 05:38:11;;;;;;;0.00;0.00;;;;;;;;;;5031027;28;20591;-85
2022/08/26 05:40:39;;;;;;;0.00;0.00;;;;;;;;;;5031360;28;20095;-85
2022/08/26 05:43:09;;;;;;;0.00;0.00;;;;;;;;;;5032448;28;20052;-86
2022/08/26 05:45:39;;;;;;;0.00;0.00;;;;;;;;;;5032820;28;20068;-85
2022/08/26 05:48:08;;;;;;;0.00;0.00;;;;;;;;;;5032670;28;20175;-85
2022/08/26 05:50:39;;;;;;;0.28;0.00;;;;;;;;;;5031238;28;20147;-85
2022/08/26 05:53:06;;;;;;;0.00;0.00;;;;;;;;;;5031052;28;20076;-86
2022/08/26 05:55:32;;;;;;;0.00;0.00;;;;;;;;;;5032473;28;20037;-85
2022/08/26 05:57:58;;;;;;;0.00;0.00;;;;;;;;;;5014525;28;20050;-85
2022/08/26 06:00:24;;;;;;;0.00;0.00;;;;;;;;;;5031447;28;20045;-87
2022/08/26 06:02:50;;;;;;;0.00;0.00;;;;;;;;;;5031169;28;20045;-85
2022/08/26 06:05:16;;;;;;;0.00;0.00;;;;;;;;;;5031180;28;20499;-84
2022/08/26 06:10:27;;;;;;;0.00;0.00;;;;;;;;;;5032605;28;20041;-81
2022/08/26 06:12:53;;;;;;;0.00;0.00;;;;;;;;;;5032059;28;20480;-81
2022/08/26 06:15:19;;;;;;;0.00;0.00;;;;;;;;;;5032582;28;20116;-81
2022/08/26 06:17:45;;;;;;;0.00;0.00;;;;;;;;;;5014334;28;20385;-81
2022/08/26 06:20:11;;;;;;;0.00;0.00;;;;;;;;;;5032331;28;20045;-81
2022/08/26 06:25:36;;;;;;;0.00;0.00;;;;;;;;;;5032502;28;20046;-82
2022/08/26 06:28:04;;;;;;;0.00;0.00;;;;;;;;;;5030701;28;20099;-80
2022/08/26 06:30:30;;;;;;;0.17;0.00;;;;;;;;;;5034278;28;20053;-81
2022/08/26 06:32:56;;;;;;;0.00;0.00;;;;;;;;;;5034423;28;20095;-82
2022/08/26 06:35:22;;;;;;;0.00;0.00;;;;;;;;;;5034634;28;20476;-80
2022/08/26 06:37:48;;;;;;;0.00;0.00;;;;;;;;;;5034294;28;20041;-82
2022/08/26 06:40:14;;;;;;;0.00;0.00;;;;;;;;;;5034240;28;20045;-82
2022/08/26 06:42:40;;;;;;;0.00;0.00;;;;;;;;;;5034057;28;20076;-82
2022/08/26 06:45:06;;;;;;;0.00;0.00;;;;;;;;;;5034455;28;20037;-82
2022/08/26 06:47:32;;;;;;;0.00;0.00;;;;;;;;;;5035456;28;20038;-82
2022/08/26 06:49:58;;;;;;;0.00;0.00;;;;;;;;;;5017586;28;20045;-82
2022/08/26 06:52:24;;;;;;;0.13;0.13;;;;;;;;;;5035366;28;20056;-84
2022/08/26 06:54:50;;;;;;;0.00;0.00;;;;;;;;;;5034220;28;20041;-81
2022/08/26 06:57:16;;;;;;;0.00;0.00;;;;;;;;;;5034011;28;20060;-82
2022/08/26 06:59:42;;;;;;;0.20;0.00;;;;;;;;;;5033921;28;20038;-82
2022/08/26 07:02:08;;;;;;;0.00;0.00;;;;;;;;;;5035211;28;20044;-82
2022/08/26 07:04:34;;;;;;;0.00;0.00;;;;;;;;;;5034006;28;20079;-82
2022/08/26 07:07:00;;;;;;;0.00;0.00;;;;;;;;;;5017023;28;20048;-82
2022/08/26 07:09:29;;;;;;;0.00;0.00;;;;;;;;;;5035085;28;20045;-81
2022/08/26 07:11:56;;;;;;;0.00;0.00;;;;;;;;;;5033702;28;20492;-82
2022/08/26 07:14:23;;;;;;;0.00;0.00;;;;;;;;;;5035022;28;20037;-81
2022/08/26 07:16:49;;;;;;;0.00;0.00;;;;;;;;;;5033785;28;20338;-81
2022/08/26 07:19:16;;;;;;;0.00;0.00;;;;;;;;;;5035045;28;20418;-82
2022/08/26 07:21:42;;;;;;;0.00;0.00;;;;;;;;;;5033827;28;20446;-82
2022/08/26 07:24:09;;;;;;;0.00;0.00;;;;;;;;;;5034577;28;20492;-82
2022/08/26 07:26:35;;;;;;;0.00;0.00;;;;;;;;;;5033834;28;20076;-82
2022/08/26 07:29:01;;;;;;;0.00;0.00;;;;;;;;;;5034647;28;20077;-82
2022/08/26 07:31:29;;;;;;;0.00;0.00;;;;;;;;;;5033433;28;20095;-83
2022/08/26 07:33:55;;;;;;;0.00;0.00;;;;;;;;;;5033148;28;20404;-82
2022/08/26 07:36:22;;;;;;;0.00;0.00;;;;;;;;;;5033330;28;20046;-82
2022/08/26 07:38:48;;;;;;;0.00;0.00;;;;;;;;;;5034453;28;20129;-82
2022/08/26 07:41:15;;;;;;;0.43;0.43;;;;;;;;;;5032900;28;20077;-82
2022/08/26 07:43:42;;;;;;;0.00;0.00;;;;;;;;;;5034362;28;20108;-82
2022/08/26 07:46:08;;;;;;;0.00;0.00;;;;;;;;;;5033536;28;20122;-82
2022/08/26 07:48:35;;;;;;;0.00;0.00;;;;;;;;;;5034138;28;20049;-82
2022/08/26 07:51:01;;;;;;;0.00;0.00;;;;;;;;;;5033317;28;20041;-81
2022/08/26 07:53:27;;;;;;;0.00;0.00;;;;;;;;;;5032739;28;20077;-82
2022/08/26 07:55:53;;;;;;;0.00;0.00;;;;;;;;;;5034353;28;20169;-82
2022/08/26 07:58:19;;;;;;;0.00;0.00;;;;;;;;;;5034141;28;20034;-82
2022/08/26 08:00:46;;;;;;;0.00;0.00;;;;;;;;;;5034338;28;20476;-83
2022/08/26 08:03:12;;;;;;;0.00;0.00;;;;;;;;;;5033758;28;20377;-82
2022/08/26 08:05:38;;;;;;;0.00;0.00;;;;;;;;;;5016274;28;20121;-82
2022/08/26 08:08:06;;;;;;;0.00;0.00;;;;;;;;;;5034006;28;20128;-84
2022/08/26 08:10:33;;;;;;;0.00;0.00;;;;;;;;;;5031946;28;20560;-87
2022/08/26 08:12:59;;;;;;;0.00;0.00;;;;;;;;;;5032568;28;20088;-83
2022/08/26 08:15:27;;;;;;;0.00;0.00;;;;;;;;;;5032462;28;20073;-82
2022/08/26 08:17:54;;;;;;;0.00;0.00;;;;;;;;;;5032579;28;20072;-83
2022/08/26 08:20:21;;;;;;;0.00;0.00;;;;;;;;;;5033453;28;20037;-82
2022/08/26 08:22:47;;;;;;;0.00;0.00;;;;;;;;;;5033906;28;20034;-85
2022/08/26 08:25:13;;;;;;;0.00;0.00;;;;;;;;;;5032331;28;20048;-84
2022/08/26 08:27:40;;;;;;;0.00;0.00;;;;;;;;;;5033031;28;20045;-81
2022/08/26 08:30:07;;;;;;;0.00;0.00;;;;;;;;;;5033312;28;20053;-82
2022/08/26 08:32:34;;;;;;;0.00;0.00;;;;;;;;;;5033432;28;20041;-88
2022/08/26 08:35:01;;;;;;;0.00;0.00;;;;;;;;;;5032289;28;20474;-82
2022/08/26 08:37:27;;;;;;;0.00;0.00;;;;;;;;;;5033621;28;20051;-83
2022/08/26 08:39:53;;;;;;;0.00;0.00;;;;;;;;;;5033153;28;20037;-82
2022/08/26 08:42:25;;;;;;;0.00;0.00;;;;;;;;;;5033578;28;20034;-81
2022/08/26 08:44:52;;;;;;;0.00;0.00;;;;;;;;;;5033399;28;20044;-82
2022/08/26 08:47:20;;;;;;;0.00;0.00;;;;;;;;;;5033562;28;20116;-82
2022/08/26 08:49:46;;;;;;;0.00;0.00;;;;;;;;;;5015676;28;20045;-82
2022/08/26 08:52:27;;;;;;;0.00;0.00;;;;;;;;;;5032759;28;20077;-81
2022/08/26 08:54:54;;;;;;;0.00;0.00;;;;;;;;;;5033326;28;20049;-82
2022/08/26 08:57:31;;;;;;;0.00;0.00;;;;;;;;;;5033157;28;20045;-82
2022/08/26 09:00:18;;;;;;;0.00;0.00;;;;;;;;;;5031998;28;20399;-82
2022/08/26 09:03:03;;;;;;;0.00;0.00;;;;;;;;;;5032036;28;20080;-81
2022/08/26 09:05:38;;;;;;;0.00;0.00;;;;;;;;;;5031852;28;20128;-82
2022/08/26 09:08:07;;;;;;;0.00;0.00;;;;;;;;;;5015554;28;20045;-81
2022/08/26 09:10:50;;;;;;;0.00;0.00;;;;;;;;;;5033043;28;20073;-82
2022/08/26 09:13:19;;;;;;;0.00;0.00;;;;;;;;;;5033167;28;20052;-81
2022/08/26 09:16:01;;;;;;;0.00;0.00;;;;;;;;;;5032688;28;20395;-82
2022/08/26 09:18:46;;;;;;;0.00;0.00;;;;;;;;;;5033119;28;20041;-82
2022/08/26 09:21:13;;;;;;;0.00;0.00;;;;;;;;;;5031314;28;20038;-82
2022/08/26 09:23:40;;;;;;;0.00;0.00;;;;;;;;;;5032960;28;20029;-82
2022/08/26 09:26:18;;;;;;;0.00;0.00;;;;;;;;;;5032865;28;20041;-82
2022/08/26 09:28:46;;;;;;;0.00;0.00;;;;;;;;;;5031464;28;20053;-82
2022/08/26 09:31:14;;;;;;;0.00;0.00;;;;;;;;;;5031154;28;20136;-82
2022/08/26 09:33:40;;;;;;;0.00;0.00;;;;;;;;;;5031797;28;20081;-82
2022/08/26 09:36:15;;;;;;;0.00;0.00;;;;;;;;;;5031358;28;20068;-82
2022/08/26 09:38:41;;;;;;;0.00;0.00;;;;;;;;;;5032908;28;20045;-83
2022/08/26 09:41:19;;;;;;;0.00;0.00;;;;;;;;;;5031613;28;20038;-82
2022/08/26 09:44:07;;;;;;;0.00;0.00;;;;;;;;;;5031427;28;20567;-82
2022/08/26 09:46:34;;;;;;;0.00;0.00;;;;;;;;;;5031445;28;20500;-82
2022/08/26 09:49:18;;;;;;;0.00;0.00;;;;;;;;;;5031627;28;20067;-82
2022/08/26 09:51:44;;;;;;;0.00;0.00;;;;;;;;;;5031536;28;20307;-82
2022/08/26 09:54:23;;;;;;;0.00;0.00;;;;;;;;;;5032440;28;20330;-82
2022/08/26 09:56:49;;;;;;;0.00;0.00;;;;;;;;;;5031263;28;20067;-82
2022/08/26 09:59:28;;;;;;;0.00;0.00;;;;;;;;;;5031146;28;20404;-82
2022/08/26 10:01:54;;;;;;;0.00;0.00;;;;;;;;;;5032688;28;20091;-81
2022/08/26 10:04:22;;;;;;;0.00;0.00;;;;;;;;;;5033475;28;20481;-81
2022/08/26 10:06:55;;;;;;;0.00;0.00;;;;;;;;;;5034997;28;20103;-82
2022/08/26 10:09:21;;;;;;;0.00;0.00;;;;;;;;;;5035173;28;20417;-82
2022/08/26 10:11:52;;;;;;;0.00;0.00;;;;;;;;;;5036362;28;20044;-82
2022/08/26 10:14:28;;;;;;;0.00;0.00;;;;;;;;;;5036211;28;20045;-82
2022/08/26 10:17:06;;;;;;;0.00;0.00;;;;;;;;;;5036240;28;20125;-82
2022/08/26 10:19:36;;;;;;;0.00;0.00;;;;;;;;;;5034821;28;20049;-83
2022/08/26 10:22:12;;;;;;;0.00;0.00;;;;;;;;;;5036331;28;20060;-82
2022/08/26 10:24:46;;;;;;;0.00;0.00;;;;;;;;;;5035970;28;20038;-82
2022/08/26 10:27:24;;;;;;;0.00;0.00;;;;;;;;;;5034996;28;20119;-82
2022/08/26 10:29:51;;;;;;;0.00;0.00;;;;;;;;;;5034206;28;20061;-81
2022/08/26 10:32:26;;;;;;;0.00;0.00;;;;;;;;;;5035969;28;20050;-82
2022/08/26 10:34:52;;;;;;;0.00;0.00;;;;;;;;;;5035742;28;20048;-82
2022/08/26 10:37:19;;;;;;;0.00;0.00;;;;;;;;;;5034408;28;20050;-82
2022/08/26 10:39:50;;;;;;;0.00;0.00;;;;;;;;;;5035495;28;20049;-82
2022/08/26 10:42:35;;;;;;;0.00;0.00;;;;;;;;;;5017845;28;20076;-82
2022/08/26 10:45:07;;;;;;;0.00;0.00;;;;;;;;;;5017646;28;20045;-81
2022/08/26 10:47:52;;;;;;;0.00;0.00;;;;;;;;;;5035823;28;20045;-82
2022/08/26 10:50:18;;;;;;;0.00;0.00;;;;;;;;;;5034112;28;20045;-82
2022/08/26 10:52:50;;;;;;;0.00;0.00;;;;;;;;;;5035603;28;20045;-82
2022/08/26 10:55:16;;;;;;;0.00;0.00;;;;;;;;;;5035495;28;20099;-82
2022/08/26 10:57:57;;;;;;;0.00;0.00;;;;;;;;;;5035476;28;20366;-82
2022/08/26 11:03:38;;;;;;;0.00;0.00;;;;;;;;;;5035455;28;20042;-82
2022/08/26 11:06:24;;;;;;;0.00;0.00;;;;;;;;;;5034068;28;20052;-81
2022/08/26 11:08:56;;;;;;;0.00;0.00;;;;;;;;;;5034011;28;20201;-81
2022/08/26 11:11:40;;;;;;;0.00;0.00;;;;;;;;;;5034907;28;20417;-82
2022/08/26 11:14:29;;;;;;;0.00;0.00;;;;;;;;;;5033797;28;20037;-82
2022/08/26 11:16:57;;;;;;;0.00;0.00;;;;;;;;;;5027769;28;20045;-81
2022/08/26 11:19:38;;;;;;;0.00;0.00;;;;;;;;;;5035162;28;20072;-82
2022/08/26 11:22:08;;;;;;;0.00;0.00;;;;;;;;;;5034913;28;20041;-82
2022/08/26 11:24:59;;;;;;;0.00;0.00;;;;;;;;;;5034767;28;20398;-81
2022/08/26 11:27:25;;;;;;;0.00;0.00;;;;;;;;;;5034909;28;20116;-82
2022/08/26 11:29:56;;;;;;;0.00;0.00;;;;;;;;;;5034570;28;20108;-81
2022/08/26 11:32:44;;;;;;;0.00;0.00;;;;;;;;;;5033250;28;20045;-83
2022/08/26 11:35:11;;;;;;;0.00;0.00;;;;;;;;;;5034705;28;20532;-82
2022/08/26 11:37:42;;;;;;;0.22;0.08;;;;;;;;;;5034987;28;20104;-82
2022/08/26 11:40:09;;;;;;;0.00;0.00;;;;;;;;;;5033301;28;20068;-82
2022/08/26 11:42:39;;;;;;;0.00;0.00;;;;;;;;;;5034299;28;20046;-82
2022/08/26 11:45:23;;;;;;;0.00;0.00;;;;;;;;;;5033268;28;20107;-82
2022/08/26 11:47:49;;;;;;;0.00;0.00;;;;;;;;;;5033719;28;20128;-82
2022/08/26 11:50:22;;;;;;;0.00;0.00;;;;;;;;;;5017319;28;20071;-82
2022/08/26 11:53:05;;;;;;;0.00;0.00;;;;;;;;;;5032886;28;20437;-81
2022/08/26 11:55:32;;;;;;;0.00;0.00;;;;;;;;;;5034426;28;20045;-82
2022/08/26 11:57:59;;;;;;;0.00;0.00;;;;;;;;;;5034200;28;20046;-82
2022/08/26 12:00:28;;;;;;;0.00;0.00;;;;;;;;;;5033064;28;20048;-82
2022/08/26 12:02:54;;;;;;;0.32;0.00;;;;;;;;;;5032755;28;20045;-87
2022/08/26 12:05:30;;;;;;;0.00;0.00;;;;;;;;;;5032804;28;20045;-82
2022/08/26 12:08:06;;;;;;;0.00;0.00;;;;;;;;;;5032745;28;20112;-83
2022/08/26 12:10:33;;;;;;;0.00;0.00;;;;;;;;;;5033105;28;20049;-83
2022/08/26 12:13:00;;;;;;;0.00;0.00;;;;;;;;;;5033989;28;20216;-81
2022/08/26 12:15:27;;;;;;;0.00;0.00;;;;;;;;;;5034195;28;20034;-82
2022/08/26 12:17:53;;;;;;;0.00;0.00;;;;;;;;;;5032271;28;20117;-82
2022/08/26 12:20:44;;;;;;;0.00;0.00;;;;;;;;;;5032779;28;20049;-82
2022/08/26 12:23:10;;;;;;;0.00;0.00;;;;;;;;;;5033845;28;20544;-81
2022/08/26 12:25:38;;;;;;;0.00;0.00;;;;;;;;;;5032444;28;20048;-81
2022/08/26 12:28:04;;;;;;;0.00;0.00;;;;;;;;;;5031288;28;20053;-82
2022/08/26 12:30:30;;;;;;;0.00;0.00;;;;;;;;;;5033483;28;20054;-82
2022/08/26 12:33:04;;;;;;;0.00;0.00;;;;;;;;;;5033606;28;20042;-82
2022/08/26 12:35:32;;;;;;;0.00;0.00;;;;;;;;;;5032342;28;20099;-81
2022/08/26 12:37:58;;;;;;;0.00;0.00;;;;;;;;;;5033326;28;20041;-81
2022/08/26 12:40:27;;;;;;;0.00;0.00;;;;;;;;;;5032173;28;20073;-81
2022/08/26 12:42:55;;;;;;;0.00;0.00;;;;;;;;;;5033430;28;20041;-81
2022/08/26 12:45:28;;;;;;;0.00;0.00;;;;;;;;;;5033384;28;20083;-81
2022/08/26 12:47:56;;;;;;;0.00;0.00;;;;;;;;;;5031820;28;20061;-82
2022/08/26 12:50:26;;;;;;;0.00;0.00;;;;;;;;;;5032070;28;20404;-81
2022/08/26 12:52:58;;;;;;;0.00;0.00;;;;;;;;;;5032005;28;20072;-81
2022/08/26 12:55:34;;;;;;;0.00;0.00;;;;;;;;;;5031480;28;20382;-82
2022/08/26 12:58:15;;;;;;;0.00;0.00;;;;;;;;;;5033198;28;20049;-81
2022/08/26 13:00:51;;;;;;;0.00;0.00;;;;;;;;;;5031858;28;20119;-82
2022/08/26 13:03:33;;;;;;;0.00;0.00;;;;;;;;;;5031787;28;20128;-81
2022/08/26 13:06:11;;;;;;;0.00;0.00;;;;;;;;;;5032060;28;20128;-82
2022/08/26 13:08:41;;;;;;;0.00;0.00;;;;;;;;;;5031786;28;20484;-82
2022/08/26 13:11:17;;;;;;;0.00;0.00;;;;;;;;;;5032882;28;20033;-82
2022/08/26 13:13:44;;;;;;;0.00;0.00;;;;;;;;;;5032170;28;20041;-81
2022/08/26 13:16:10;;;;;;;0.00;0.00;;;;;;;;;;5033098;28;20124;-81
2022/08/26 13:18:36;;;;;;;0.00;0.00;;;;;;;;;;5031592;28;20395;-82
2022/08/26 13:21:22;;;;;;;0.00;0.00;;;;;;;;;;5031769;28;20124;-82
2022/08/26 13:23:49;;;;;;;0.00;0.00;;;;;;;;;;5032509;28;20048;-82
2022/08/26 13:26:15;;;;;;;0.00;0.00;;;;;;;;;;5031585;28;20048;-82
2022/08/26 13:28:42;;;;;;;0.00;0.00;;;;;;;;;;5032803;28;20408;-82
2022/08/26 13:31:09;;;;;;;0.00;0.00;;;;;;;;;;5031367;28;20058;-82
2022/08/26 13:33:36;;;;;;;0.00;0.00;;;;;;;;;;5032797;28;20125;-82
2022/08/26 13:36:02;;;;;;;0.00;0.00;;;;;;;;;;5031745;28;20120;-82
2022/08/26 13:38:28;;;;;;;0.00;0.00;;;;;;;;;;5032147;28;20503;-82
2022/08/26 13:40:58;;;;;;;0.00;0.00;;;;;;;;;;5035799;28;20077;-82
2022/08/26 13:43:24;;;;;;;0.00;0.00;;;;;;;;;;5018893;28;20542;-82
2022/08/26 13:45:50;;;;;;;0.00;0.00;;;;;;;;;;5035662;28;20511;-82
2022/08/26 13:48:17;;;;;;;0.00;0.00;;;;;;;;;;5035155;28;20092;-82
2022/08/26 13:50:44;;;;;;;0.00;0.00;;;;;;;;;;5037273;28;20049;-82
2022/08/26 13:53:10;;;;;;;0.00;0.00;;;;;;;;;;5035064;28;20041;-82
2022/08/26 13:55:36;;;;;;;0.00;0.00;;;;;;;;;;5035231;28;20049;-82
2022/08/26 13:58:02;;;;;;;0.00;0.00;;;;;;;;;;5035014;28;20056;-81
2022/08/26 14:00:28;;;;;;;0.00;0.00;;;;;;;;;;5036755;28;20029;-82
2022/08/26 14:02:54;;;;;;;0.00;0.00;;;;;;;;;;5034959;28;20448;-82
2022/08/26 14:05:20;;;;;;;0.00;0.00;;;;;;;;;;5035347;28;20415;-82
2022/08/26 14:07:46;;;;;;;0.00;0.00;;;;;;;;;;5034884;28;20496;-82
2022/08/26 14:10:12;;;;;;;0.00;0.00;;;;;;;;;;5034973;28;20045;-83
2022/08/26 14:12:38;;;;;;;0.00;0.00;;;;;;;;;;5036242;28;20065;-86
2022/08/26 14:15:05;;;;;;;0.00;0.00;;;;;;;;;;5036410;28;20061;-82
2022/08/26 14:17:31;;;;;;;0.00;0.00;;;;;;;;;;5034781;28;20048;-83
2022/08/26 14:19:57;;;;;;;0.00;0.00;;;;;;;;;;5034975;28;20124;-82
2022/08/26 14:22:23;;;;;;;0.00;0.00;;;;;;;;;;5034601;28;20080;-82
2022/08/26 14:24:49;;;;;;;0.00;0.00;;;;;;;;;;5035959;28;20480;-82
2022/08/26 14:27:15;;;;;;;0.00;0.00;;;;;;;;;;5035979;28;20490;-85
2022/08/26 14:29:42;;;;;;;0.00;0.00;;;;;;;;;;5035800;28;20049;-83
2022/08/26 14:32:11;;;;;;;0.00;0.00;;;;;;;;;;5035799;28;20040;-85
2022/08/26 14:34:38;;;;;;;0.00;0.00;;;;;;;;;;5034966;28;20487;-84
2022/08/26 14:37:04;;;;;;;0.00;0.00;;;;;;;;;;5034571;28;20396;-84
2022/08/26 14:39:31;;;;;;;0.00;0.00;;;;;;;;;;5035811;28;20116;-84
2022/08/26 14:41:57;;;;;;;0.00;0.00;;;;;;;;;;5035869;28;20042;-83
2022/08/26 14:44:25;;;;;;;0.00;0.00;;;;;;;;;;5034351;28;20111;-83
2022/08/26 14:46:51;;;;;;;0.00;0.00;;;;;;;;;;5035803;28;20182;-84
2022/08/26 14:49:18;;;;;;;0.00;0.00;;;;;;;;;;5035292;28;20404;-83
2022/08/26 14:51:44;;;;;;;0.00;0.00;;;;;;;;;;5033600;28;20500;-86
2022/08/26 14:54:11;;;;;;;0.00;0.00;;;;;;;;;;5034234;28;20037;-84
2022/08/26 14:56:51;;;;;;;0.00;0.00;;;;;;;;;;5035645;28;20122;-84
2022/08/26 14:59:19;;;;;;;0.00;0.00;;;;;;;;;;5033922;28;20077;-84
2022/08/26 15:01:45;;;;;;;0.00;0.00;;;;;;;;;;5035448;28;20175;-84